createdAt,value
2019-05-06T00:02:01.657Z,3.50
2019-05-06T00:04:44.821Z,3.50
2019-05-06T00:07:24.315Z,3.50
2019-05-06T00:10:02.910Z,3.50
2019-05-06T00:12:40.452Z,3.50
2019-05-06T00:15:17.631Z,3.50
2019-05-06T00:18:10.248Z,3.50
2019-05-06T00:20:47.418Z,3.50
2019-05-06T00:23:29.291Z,3.40
2019-05-06T00:26:34.009Z,3.40
2019-05-06T00:29:17.103Z,3.50
2019-05-06T00:31:55.119Z,3.50
2019-05-06T00:34:34.189Z,3.50
2019-05-06T00:37:12.153Z,3.40
2019-05-06T00:39:57.876Z,3.40
2019-05-06T00:42:38.768Z,3.40
2019-05-06T00:45:16.522Z,3.30
2019-05-06T00:47:54.258Z,3.30
2019-05-06T00:50:31.882Z,3.20
2019-05-06T00:53:11.695Z,3.30
2019-05-06T00:55:49.150Z,3.20
2019-05-06T00:58:26.539Z,3.20
2019-05-06T01:01:04.792Z,3.20
2019-05-06T01:03:44.212Z,3.10
2019-05-06T01:06:21.479Z,3.10
2019-05-06T01:08:59.229Z,3.20
2019-05-06T01:11:36.694Z,3.20
2019-05-06T01:14:19.793Z,3.20
2019-05-06T01:16:57.213Z,3.20
2019-05-06T01:19:34.705Z,3.10
2019-05-06T01:22:13.961Z,3.10
2019-05-06T01:24:51.115Z,3.20
2019-05-06T01:27:28.516Z,3.10
2019-05-06T01:30:07.195Z,3.10
2019-05-06T01:32:45.349Z,3.10
2019-05-06T01:35:24.486Z,3.10
2019-05-06T01:38:25.179Z,3.10
2019-05-06T01:41:17.347Z,3.20
2019-05-06T01:43:55.221Z,3.10
2019-05-06T01:46:34.018Z,3.10
2019-05-06T01:49:11.294Z,3.10
2019-05-06T01:51:48.608Z,3.10
2019-05-06T01:54:26.829Z,3.10
2019-05-06T01:57:04.741Z,2.90
2019-05-06T01:59:44.354Z,2.90
2019-05-06T02:02:23.708Z,2.90
2019-05-06T02:05:01.070Z,3.00
2019-05-06T02:07:38.948Z,3.10
2019-05-06T02:10:17.340Z,3.10
2019-05-06T02:12:55.144Z,3.20
2019-05-06T02:15:34.632Z,3.20
2019-05-06T02:18:13.532Z,3.30
2019-05-06T02:20:53.942Z,3.30
2019-05-06T02:23:33.832Z,3.30
2019-05-06T02:26:11.273Z,3.30
2019-05-06T02:28:50.668Z,3.40
2019-05-06T02:32:24.551Z,3.40
2019-05-06T02:34:50.067Z,3.30
2019-05-06T02:37:35.357Z,3.30
2019-05-06T02:40:25.370Z,3.30
2019-05-06T02:43:03.575Z,3.30
2019-05-06T02:45:43.288Z,3.30
2019-05-06T02:48:43.252Z,3.20
2019-05-06T02:51:24.561Z,3.30
2019-05-06T02:54:03.319Z,3.40
2019-05-06T02:56:43.314Z,3.40
2019-05-06T02:59:20.184Z,3.50
2019-05-06T03:01:57.555Z,3.60
2019-05-06T03:04:35.024Z,3.60
2019-05-06T03:07:23.984Z,3.60
2019-05-06T03:10:04.121Z,3.60
2019-05-06T03:12:43.101Z,3.60
2019-05-06T03:15:26.513Z,3.50
2019-05-06T03:18:04.315Z,3.50
2019-05-06T03:21:03.811Z,3.50
2019-05-06T03:23:44.499Z,3.50
2019-05-06T03:26:23.590Z,3.50
2019-05-06T03:29:02.883Z,3.50
2019-05-06T03:31:45.797Z,3.50
2019-05-06T03:34:38.301Z,3.60
2019-05-06T03:36:59.261Z,3.70
2019-05-06T03:39:37.026Z,3.70
2019-05-06T03:42:16.717Z,3.80
2019-05-06T03:44:59.270Z,3.80
2019-05-06T03:47:47.523Z,3.90
2019-05-06T03:50:26.394Z,3.90
2019-05-06T03:53:20.007Z,4.00
2019-05-06T03:56:09.066Z,4.00
2019-05-06T03:58:48.485Z,4.00
2019-05-06T04:01:26.359Z,4.10
2019-05-06T04:04:04.021Z,4.10
2019-05-06T04:06:43.700Z,4.10
2019-05-06T04:09:24.051Z,4.20
2019-05-06T04:12:03.604Z,4.20
2019-05-06T04:14:43.361Z,4.30
2019-05-06T04:17:29.385Z,4.40
2019-05-06T04:20:23.382Z,4.40
2019-05-06T04:23:13.298Z,4.50
2019-05-06T04:26:06.358Z,4.60
2019-05-06T04:28:43.903Z,4.70
2019-05-06T04:31:22.876Z,4.80
2019-05-06T04:34:09.962Z,4.90
2019-05-06T04:36:53.509Z,5.10
2019-05-06T04:39:33.158Z,5.20
2019-05-06T04:42:13.698Z,5.30
2019-05-06T04:44:52.945Z,5.40
2019-05-06T04:47:43.460Z,5.60
2019-05-06T04:50:23.879Z,5.80
2019-05-06T04:53:04.523Z,6.30
2019-05-06T04:55:44.139Z,6.80
2019-05-06T04:58:23.280Z,7.30
2019-05-06T05:01:04.157Z,7.50
2019-05-06T05:03:53.922Z,8.00
2019-05-06T05:06:32.881Z,8.30
2019-05-06T05:09:14.490Z,8.50
2019-05-06T05:11:54.404Z,8.70
2019-05-06T05:14:51.926Z,9.10
2019-05-06T05:17:52.599Z,9.50
2019-05-06T05:20:38.192Z,10.00
2019-05-06T05:23:11.890Z,10.40
2019-05-06T05:25:49.389Z,10.60
2019-05-06T05:28:26.816Z,10.70
2019-05-06T05:31:05.660Z,10.60
2019-05-06T05:33:46.350Z,11.00
2019-05-06T05:36:24.200Z,11.30
2019-05-06T05:39:03.379Z,11.60
2019-05-06T05:41:42.771Z,11.70
2019-05-06T05:44:23.706Z,11.80
2019-05-06T05:47:03.413Z,11.90
2019-05-06T05:50:13.280Z,12.30
2019-05-06T05:52:51.954Z,12.70
2019-05-06T05:55:29.513Z,13.20
2019-05-06T05:58:07.328Z,12.80
2019-05-06T06:00:45.055Z,13.10
2019-05-06T06:03:22.499Z,14.00
2019-05-06T06:06:00.436Z,14.70
2019-05-06T06:08:37.630Z,15.00
2019-05-06T06:11:23.008Z,15.60
2019-05-06T06:14:03.801Z,15.90
2019-05-06T06:16:58.803Z,16.80
2019-05-06T06:19:45.509Z,17.20
2019-05-06T06:22:25.249Z,17.00
2019-05-06T06:25:04.302Z,17.70
2019-05-06T06:27:51.877Z,18.20
2019-05-06T06:30:35.755Z,18.30
2019-05-06T06:33:22.322Z,18.20
2019-05-06T06:36:24.723Z,18.80
2019-05-06T06:39:22.881Z,19.20
2019-05-06T06:42:00.199Z,19.30
2019-05-06T06:44:37.537Z,18.60
2019-05-06T06:47:22.495Z,17.70
2019-05-06T06:49:59.958Z,17.50
2019-05-06T06:52:38.297Z,17.70
2019-05-06T06:55:18.316Z,18.20
2019-05-06T06:58:13.583Z,18.40
2019-05-06T07:01:12.248Z,19.40
2019-05-06T07:03:58.776Z,19.50
2019-05-06T07:06:47.446Z,20.10
2019-05-06T07:09:24.970Z,20.80
2019-05-06T07:12:03.547Z,21.40
2019-05-06T07:14:42.810Z,21.80
2019-05-06T07:17:22.706Z,21.00
2019-05-06T07:20:02.987Z,21.10
2019-05-06T07:22:42.515Z,21.40
2019-05-06T07:25:22.626Z,21.80
2019-05-06T07:27:59.707Z,22.10
2019-05-06T07:30:37.423Z,21.50
2019-05-06T07:33:14.724Z,22.10
2019-05-06T07:35:54.090Z,22.50
2019-05-06T07:38:32.644Z,22.90
2019-05-06T07:41:15.313Z,22.20
2019-05-06T07:44:18.337Z,22.10
2019-05-06T07:47:15.735Z,22.50
2019-05-06T07:49:53.322Z,22.70
2019-05-06T07:52:32.585Z,22.20
2019-05-06T07:55:12.010Z,23.20
2019-05-06T07:57:50.596Z,22.40
2019-05-06T08:00:28.185Z,22.80
2019-05-06T08:03:06.356Z,23.10
2019-05-06T08:05:55.150Z,22.30
2019-05-06T08:08:24.152Z,22.30
2019-05-06T08:11:02.854Z,22.90
2019-05-06T08:13:40.248Z,22.40
2019-05-06T08:16:18.729Z,21.50
2019-05-06T08:18:56.561Z,22.80
2019-05-06T08:21:37.110Z,23.40
2019-05-06T08:24:14.428Z,24.10
2019-05-06T08:26:52.235Z,24.60
2019-05-06T08:29:29.917Z,24.00
2019-05-06T08:32:07.663Z,24.00
2019-05-06T08:34:45.029Z,24.40
2019-05-06T08:37:32.165Z,24.30
2019-05-06T08:40:11.998Z,24.30
2019-05-06T08:42:53.057Z,21.80
2019-05-06T08:45:29.763Z,22.70
2019-05-06T08:48:07.187Z,23.40
2019-05-06T08:51:02.835Z,22.70
2019-05-06T08:53:44.521Z,22.80
2019-05-06T08:56:23.102Z,20.50
2019-05-06T08:59:02.991Z,19.00
2019-05-06T09:01:46.926Z,19.00
2019-05-06T09:04:24.128Z,21.50
2019-05-06T09:07:02.920Z,23.10
2019-05-06T09:09:42.199Z,20.60
2019-05-06T09:12:22.317Z,18.50
2019-05-06T09:15:03.445Z,17.30
2019-05-06T09:17:42.121Z,16.60
2019-05-06T09:20:19.791Z,16.40
2019-05-06T09:22:57.403Z,16.30
2019-05-06T09:25:34.562Z,16.10
2019-05-06T09:28:34.360Z,15.70
2019-05-06T09:31:25.026Z,15.40
2019-05-06T09:34:09.747Z,14.80
2019-05-06T09:36:52.670Z,14.30
2019-05-06T09:39:32.158Z,14.20
2019-05-06T09:42:08.727Z,14.10
2019-05-06T09:44:50.230Z,14.20
2019-05-06T09:48:00.012Z,14.30
2019-05-06T09:50:45.497Z,14.80
2019-05-06T09:53:43.227Z,16.60
2019-05-06T09:56:28.355Z,15.90
2019-05-06T09:59:05.783Z,15.10
2019-05-06T10:01:43.760Z,14.90
2019-05-06T10:04:22.739Z,14.90
2019-05-06T10:07:02.548Z,15.50
2019-05-06T10:09:39.603Z,16.00
2019-05-06T10:12:17.023Z,17.90
2019-05-06T10:14:54.819Z,20.00
2019-05-06T10:17:32.622Z,20.10
2019-05-06T10:20:10.032Z,18.50
2019-05-06T10:22:48.197Z,17.60
2019-05-06T10:25:37.621Z,16.80
2019-05-06T10:28:33.610Z,16.10
2019-05-06T10:31:12.863Z,15.70
2019-05-06T10:34:07.893Z,15.20
2019-05-06T10:37:12.650Z,14.90
2019-05-06T10:39:43.374Z,14.80
2019-05-06T10:42:25.448Z,14.70
2019-05-06T10:45:26.625Z,14.60
2019-05-06T10:48:04.028Z,14.50
2019-05-06T10:50:55.704Z,14.60
2019-05-06T10:53:33.053Z,14.50
2019-05-06T10:56:32.877Z,14.60
2019-05-06T10:59:22.074Z,14.70
2019-05-06T11:02:05.757Z,14.70
2019-05-06T11:04:43.062Z,14.70
2019-05-06T11:07:29.409Z,14.80
2019-05-06T11:10:02.434Z,14.80
2019-05-06T11:12:40.309Z,14.60
2019-05-06T11:15:23.237Z,14.80
2019-05-06T11:18:04.223Z,14.90
2019-05-06T11:20:43.457Z,14.80
2019-05-06T11:23:21.811Z,14.80
2019-05-06T11:26:10.255Z,14.80
2019-05-06T11:28:55.831Z,14.90
2019-05-06T11:31:43.299Z,15.10
2019-05-06T11:34:45.287Z,15.70
2019-05-06T11:37:47.233Z,16.20
2019-05-06T11:40:18.572Z,16.70
2019-05-06T11:42:56.443Z,17.40
2019-05-06T11:45:33.647Z,17.10
2019-05-06T11:48:14.272Z,16.20
2019-05-06T11:50:51.566Z,16.10
2019-05-06T11:53:29.951Z,15.90
2019-05-06T11:56:07.299Z,15.80
2019-05-06T11:58:54.871Z,16.10
2019-05-06T12:01:37.428Z,16.60
2019-05-06T12:04:14.825Z,17.40
2019-05-06T12:07:09.239Z,18.10
2019-05-06T12:09:33.395Z,18.10
2019-05-06T12:12:12.978Z,17.80
2019-05-06T12:14:52.470Z,16.70
2019-05-06T12:17:29.166Z,15.50
2019-05-06T12:20:08.078Z,14.30
2019-05-06T12:22:45.228Z,13.30
2019-05-06T12:25:23.741Z,12.60
2019-05-06T12:28:03.076Z,11.60
2019-05-06T12:30:42.595Z,11.40
2019-05-06T12:33:36.776Z,11.20
2019-05-06T12:36:25.634Z,10.90
2019-05-06T12:39:23.073Z,10.60
2019-05-06T12:42:10.219Z,10.60
2019-05-06T12:45:03.297Z,10.70
2019-05-06T12:47:47.663Z,10.80
2019-05-06T12:50:25.977Z,10.50
2019-05-06T12:53:03.159Z,10.20
2019-05-06T12:55:43.017Z,10.30
2019-05-06T12:58:23.067Z,10.50
2019-05-06T13:00:58.960Z,10.60
2019-05-06T13:03:38.022Z,10.30
2019-05-06T13:06:15.379Z,10.50
2019-05-06T13:09:00.991Z,10.80
2019-05-06T13:11:32.134Z,11.20
2019-05-06T13:14:09.683Z,11.00
2019-05-06T13:16:47.387Z,10.70
2019-05-06T13:19:24.800Z,10.90
2019-05-06T13:22:03.542Z,10.50
2019-05-06T13:24:42.047Z,10.50
2019-05-06T13:27:23.204Z,10.40
2019-05-06T13:30:02.351Z,10.40
2019-05-06T13:32:43.233Z,10.50
2019-05-06T13:35:22.620Z,10.50
2019-05-06T13:38:01.088Z,10.70
2019-05-06T13:40:50.684Z,10.70
2019-05-06T13:43:46.158Z,10.60
2019-05-06T13:46:27.012Z,10.70
2019-05-06T13:49:25.568Z,10.30
2019-05-06T13:52:05.183Z,10.00
2019-05-06T13:54:43.129Z,10.00
2019-05-06T13:57:20.583Z,10.00
2019-05-06T13:59:58.096Z,9.90
2019-05-06T14:03:02.131Z,10.00
2019-05-06T14:05:42.384Z,9.80
2019-05-06T14:08:19.592Z,9.70
2019-05-06T14:10:59.955Z,9.70
2019-05-06T14:13:36.053Z,9.60
2019-05-06T14:16:13.644Z,9.60
2019-05-06T14:18:53.253Z,9.70
2019-05-06T14:21:32.369Z,9.70
2019-05-06T14:24:13.292Z,9.80
2019-05-06T14:27:02.379Z,10.00
2019-05-06T14:30:04.812Z,9.90
2019-05-06T14:32:43.961Z,9.90
2019-05-06T14:35:23.094Z,10.00
2019-05-06T14:38:00.061Z,10.10
2019-05-06T14:40:56.853Z,10.30
2019-05-06T14:43:35.395Z,10.30
2019-05-06T14:46:13.269Z,10.60
2019-05-06T14:48:53.267Z,10.70
2019-05-06T14:51:32.818Z,10.50
2019-05-06T14:54:09.972Z,10.50
2019-05-06T14:56:53.366Z,10.50
2019-05-06T14:59:32.948Z,10.40
2019-05-06T15:02:10.058Z,10.50
2019-05-06T15:04:47.421Z,10.30
2019-05-06T15:07:24.997Z,10.00
2019-05-06T15:10:19.285Z,10.00
2019-05-06T15:12:42.770Z,10.10
2019-05-06T15:15:20.174Z,10.10
2019-05-06T15:17:57.703Z,10.40
2019-05-06T15:20:35.213Z,10.70
2019-05-06T15:23:23.912Z,10.50
2019-05-06T15:26:03.063Z,10.40
2019-05-06T15:28:42.561Z,10.30
2019-05-06T15:31:34.466Z,10.60
2019-05-06T15:34:16.029Z,10.60
2019-05-06T15:37:02.240Z,10.50
2019-05-06T15:39:39.312Z,10.40
2019-05-06T15:42:17.109Z,10.60
2019-05-06T15:44:54.777Z,10.60
2019-05-06T15:47:32.623Z,10.50
2019-05-06T15:50:12.515Z,10.50
2019-05-06T15:52:57.308Z,10.30
2019-05-06T15:55:34.722Z,10.20
2019-05-06T15:58:12.497Z,10.20
2019-05-06T16:00:49.857Z,10.20
2019-05-06T16:03:27.459Z,10.20
2019-05-06T16:06:05.217Z,10.20
2019-05-06T16:08:42.813Z,9.90
2019-05-06T16:11:25.752Z,9.70
2019-05-06T16:14:03.298Z,9.60
2019-05-06T16:16:42.866Z,9.50
2019-05-06T16:19:23.119Z,9.50
2019-05-06T16:22:03.929Z,9.50
2019-05-06T16:24:45.906Z,9.60
2019-05-06T16:27:23.492Z,9.80
2019-05-06T16:30:03.375Z,9.80
2019-05-06T16:32:42.001Z,9.70
2019-05-06T16:35:19.328Z,9.60
2019-05-06T16:37:56.800Z,9.50
2019-05-06T16:40:34.611Z,9.50
2019-05-06T16:43:12.662Z,9.40
2019-05-06T16:45:52.933Z,9.40
2019-05-06T16:48:29.774Z,9.30
2019-05-06T16:51:07.647Z,9.30
2019-05-06T16:53:45.842Z,9.40
2019-05-06T16:56:47.206Z,9.40
2019-05-06T16:59:25.521Z,9.40
2019-05-06T17:02:08.151Z,9.40
2019-05-06T17:05:05.188Z,9.40
2019-05-06T17:07:45.072Z,9.50
2019-05-06T17:10:26.683Z,9.50
2019-05-06T17:13:04.216Z,9.50
2019-05-06T17:15:41.735Z,9.50
2019-05-06T17:18:25.460Z,9.50
2019-05-06T17:21:02.915Z,9.40
2019-05-06T17:23:42.175Z,9.40
2019-05-06T17:26:19.143Z,9.40
2019-05-06T17:29:04.990Z,9.40
2019-05-06T17:31:55.481Z,9.40
2019-05-06T17:34:38.776Z,9.40
2019-05-06T17:37:36.949Z,9.20
2019-05-06T17:40:16.276Z,9.20
2019-05-06T17:42:53.824Z,9.10
2019-05-06T17:46:01.678Z,9.00
2019-05-06T17:49:02.387Z,9.00
2019-05-06T17:52:03.005Z,8.90
2019-05-06T17:54:42.880Z,8.80
2019-05-06T17:57:22.192Z,8.70
2019-05-06T18:00:03.283Z,8.60
2019-05-06T18:02:42.149Z,8.50
2019-05-06T18:05:22.734Z,8.40
2019-05-06T18:07:59.652Z,8.30
2019-05-06T18:10:37.390Z,8.20
2019-05-06T18:13:14.914Z,8.10
2019-05-06T18:15:53.064Z,8.00
2019-05-06T18:18:31.426Z,7.90
2019-05-06T18:21:09.433Z,7.80
2019-05-06T18:23:49.566Z,7.70
2019-05-06T18:26:26.367Z,7.50
2019-05-06T18:29:04.413Z,7.40
2019-05-06T18:31:42.925Z,7.40
2019-05-06T18:34:23.055Z,7.30
2019-05-06T18:37:00.359Z,7.40
2019-05-06T18:39:38.565Z,7.30
2019-05-06T18:42:20.220Z,7.30
2019-05-06T18:44:55.216Z,7.20
2019-05-06T18:47:33.543Z,7.10
2019-05-06T18:50:12.571Z,7.00
2019-05-06T18:52:53.967Z,7.00
2019-05-06T18:55:33.077Z,6.90
2019-05-06T18:58:12.979Z,6.80
2019-05-06T19:00:53.027Z,6.80
2019-05-06T19:03:35.450Z,6.80
2019-05-06T19:06:12.988Z,6.80
2019-05-06T19:09:03.639Z,6.70
2019-05-06T19:11:42.654Z,6.60
2019-05-06T19:14:21.699Z,6.60
2019-05-06T19:16:59.026Z,6.70
2019-05-06T19:19:36.529Z,6.60
2019-05-06T19:22:14.568Z,6.60
2019-05-06T19:24:52.433Z,6.60
2019-05-06T19:27:32.763Z,6.60
2019-05-06T19:30:12.822Z,6.70
2019-05-06T19:32:49.610Z,6.70
2019-05-06T19:35:27.487Z,6.70
2019-05-06T19:38:05.333Z,6.80
2019-05-06T19:40:42.816Z,6.80
2019-05-06T19:43:21.992Z,6.80
2019-05-06T19:45:59.735Z,6.70
2019-05-06T19:48:38.604Z,6.70
2019-05-06T19:51:19.229Z,6.70
2019-05-06T19:53:56.541Z,6.60
2019-05-06T19:56:34.047Z,6.50
2019-05-06T19:59:12.901Z,6.40
2019-05-06T20:01:52.474Z,6.40
2019-05-06T20:04:30.118Z,6.50
2019-05-06T20:07:27.141Z,6.50
2019-05-06T20:10:28.121Z,6.60
2019-05-06T20:13:05.865Z,6.70
2019-05-06T20:15:43.409Z,6.80
2019-05-06T20:18:22.318Z,6.80
2019-05-06T20:21:00.572Z,6.90
2019-05-06T20:23:37.907Z,6.90
2019-05-06T20:26:15.653Z,7.00
2019-05-06T20:28:53.043Z,7.00
2019-05-06T20:31:32.157Z,7.00
2019-05-06T20:34:12.849Z,7.10
2019-05-06T20:36:49.949Z,7.10
2019-05-06T20:39:27.555Z,7.10
2019-05-06T20:42:05.482Z,7.10
2019-05-06T20:44:43.465Z,7.20
2019-05-06T20:47:21.879Z,7.20
2019-05-06T20:50:13.282Z,7.20
2019-05-06T20:52:52.046Z,7.10
2019-05-06T20:55:32.631Z,7.20
2019-05-06T20:58:08.700Z,7.20
2019-05-06T21:00:46.030Z,7.20
2019-05-06T21:03:23.947Z,7.20
2019-05-06T21:06:02.147Z,7.20
2019-05-06T21:08:42.120Z,7.20
2019-05-06T21:11:32.512Z,7.30
2019-05-06T21:14:09.540Z,7.40
2019-05-06T21:16:48.217Z,7.50
2019-05-06T21:19:25.742Z,7.50
2019-05-06T21:22:03.076Z,7.60
2019-05-06T21:24:43.073Z,7.60
2019-05-06T21:27:22.940Z,7.60
2019-05-06T21:30:02.400Z,7.60
2019-05-06T21:32:39.697Z,7.70
2019-05-06T21:35:16.917Z,7.60
2019-05-06T21:37:54.044Z,7.70
2019-05-06T21:40:32.271Z,7.70
2019-05-06T21:43:12.982Z,7.70
2019-05-06T21:45:50.267Z,7.70
2019-05-06T21:48:28.161Z,7.70
2019-05-06T21:51:06.099Z,7.70
2019-05-06T21:53:43.445Z,7.70
2019-05-06T21:56:22.623Z,7.70
2019-05-06T21:59:01.828Z,7.70
2019-05-06T22:01:43.021Z,7.60
2019-05-06T22:04:19.805Z,7.60
2019-05-06T22:06:57.039Z,7.50
2019-05-06T22:09:34.467Z,7.40
2019-05-06T22:12:11.850Z,7.30
2019-05-06T22:14:49.309Z,7.20
2019-05-06T22:17:27.033Z,7.10
2019-05-06T22:20:05.579Z,7.00
2019-05-06T22:22:44.073Z,6.90
2019-05-06T22:25:22.166Z,6.90
2019-05-06T22:27:59.713Z,6.80
2019-05-06T22:30:37.493Z,6.80
2019-05-06T22:33:14.901Z,6.70
2019-05-06T22:35:54.857Z,6.60
2019-05-06T22:38:31.561Z,6.60
2019-05-06T22:41:08.833Z,6.60
2019-05-06T22:43:46.788Z,6.50
2019-05-06T22:46:24.244Z,6.50
2019-05-06T22:49:02.567Z,6.40
2019-05-06T22:51:40.083Z,6.30
2019-05-06T22:54:17.517Z,6.30
2019-05-06T22:56:55.035Z,6.30
2019-05-06T22:59:32.978Z,6.20
2019-05-06T23:02:35.488Z,6.20
2019-05-06T23:05:13.466Z,6.10
2019-05-06T23:07:53.243Z,6.00
2019-05-06T23:10:30.746Z,6.00
2019-05-06T23:13:19.748Z,5.90
2019-05-06T23:15:57.242Z,5.90
2019-05-06T23:18:35.436Z,5.90
2019-05-06T23:21:14.747Z,5.80
2019-05-06T23:23:54.467Z,5.80
2019-05-06T23:26:31.092Z,5.80
2019-05-06T23:29:09.087Z,5.90
2019-05-06T23:31:46.415Z,6.00
2019-05-06T23:34:23.852Z,6.10
2019-05-06T23:37:25.531Z,6.10
2019-05-06T23:40:42.537Z,6.20
2019-05-06T23:43:55.552Z,6.30
2019-05-06T23:47:09.405Z,6.30
2019-05-06T23:50:23.692Z,6.30
2019-05-06T23:53:37.431Z,6.30
2019-05-06T23:56:43.385Z,6.30
2019-05-06T23:59:22.546Z,6.30
